KBBB/BBB METAR and TAF weather

Enter ICAO airport designator
Station Type Date Time Source
KBBB METAR 2020/02/16 20:12 UTC NOAA

KBBB 162012Z AUTO 13007KT 10SM SCT080 M06/M12 A3003 RMK AO2


Station Type Date Time Source
KBBB Decoded METAR 2020/02/16 20:12 UTC NOAA

Benson Municipal, MN, United States (KBBB) 45-19N 095-39W
Feb 16, 2020 - 03:12 PM EST / 2020.02.16 2012 UTC
Wind: from the SE (130 degrees) at 8 MPH (7 KT):0
Visibility: 10 mile(s):0
Sky conditions: partly cloudy
Temperature: 21 F (-6 C)
Windchill: 12 F (-11 C):1
Dew Point: 10 F (-12 C)
Relative Humidity: 62%
Pressure (altimeter): 30.03 in. Hg (1016 hPa)
ob: KBBB 162012Z AUTO 13007KT 10SM SCT080 M06/M12 A3003 RMK AO2
cycle: 20

Station Type Date Time Source
KBBB TAF UTC NOAA

Error!

Example: see airport list